METAR/TAF

Belfast City Airport
BELFAST HARBOUR
Metar
EGAC 201420Z VRB03KT 9999 FEW026 05/03 Q1001

14:20 UTC

Wind: ° 3kt

Visibility: 9999 m

Sky: FEW 2600 ft

Temp: 5 deg C / 41 deg F

Dewpoint: 3 deg C / 37.4 deg F

Pressure: 1001 hPa

TAF
TAF EGAC 201100Z 2012/2021 VRB03KT 9999 FEW011 SCT030 PROB30 TEMPO 2012/2013 BKN013 PROB30 2019/2021 2000 BR
Belfast International Airport
BELFAST/ALDERGRO
Metar
EGAA 201420Z VRB03KT 5000 1500NW R25/P1500 R07/P1500 VCFG FEW006 02/02 Q1002

14:20 UTC

Wind: ° 3kt

Visibility: 5000 m

Sky: FEW 600 ft

Temp: 2 deg C / 35.6 deg F

Dewpoint: 2 deg C / 35.6 deg F

Pressure: 1002 hPa

TAF
TAF AMD EGAA 201341Z 2013/2112 VRB03KT 0300 FG BKN000 PROB30 2013/2024 8000 NSW FEW006 SCT025 BECMG 2100/2103 15010KT TEMPO 2103/2112 5000 RA -RADZ BKN007 TEMPO 2107/2112 13018G28KT
Print Friendly, PDF & Email